Terminal Aerodrome Forecast
Issued by NWS

Home | Current Version | Previous Version | Graphics & Text | Print | Product List | Glossary On
Versions: 1 2 3 4 5 6 7 8 9 10 11 12 13 14 15 16 17 18 19 20 21 22 23
000
FTUS43 KLOT 240908 AAA
TAFGYY
TAF AMD
KGYY 240908Z 2409/2506 VRB03KT 4SM BR FEW250
      TEMPO 2409/2413 1SM BR VV007
     FM241300 17007KT P6SM FEW150
     FM242300 07008KT P6SM FEW150
     FM250400 17006KT P6SM FEW250=

USA.gov is the U.S. government's official web portal to all federal, state and local government web resources and services.